sensor_id;sensor_type;location;lat;lon;timestamp;pressure;altitude;pressure_sealevel;temperature;humidity
27425;BME280;15244;49.088;11.886;2023-02-26T00:04:49;94996.56;;;1.84;51.67
27425;BME280;15244;49.088;11.886;2023-02-26T00:09:50;94996.56;;;1.84;51.33
27425;BME280;15244;49.088;11.886;2023-02-26T00:14:52;95007.03;;;1.73;51.15
27425;BME280;15244;49.088;11.886;2023-02-26T00:19:54;95011.97;;;1.71;51.16
27425;BME280;15244;49.088;11.886;2023-02-26T00:24:56;95022.41;;;1.72;51.22
27425;BME280;15244;49.088;11.886;2023-02-26T00:29:57;95017.94;;;1.64;51.03
27425;BME280;15244;49.088;11.886;2023-02-26T00:34:59;95028.06;;;1.55;50.62
27425;BME280;15244;49.088;11.886;2023-02-26T00:40:14;95037.41;;;1.45;50.62
27425;BME280;15244;49.088;11.886;2023-02-26T00:45:19;95042.59;;;1.54;50.80
27425;BME280;15244;49.088;11.886;2023-02-26T00:50:24;95040.53;;;1.47;50.90
27425;BME280;15244;49.088;11.886;2023-02-26T00:55:26;95045.13;;;1.47;51.05
27425;BME280;15244;49.088;11.886;2023-02-26T01:00:30;95051.28;;;1.47;50.99
27425;BME280;15244;49.088;11.886;2023-02-26T01:05:32;95046.66;;;1.48;50.82
27425;BME280;15244;49.088;11.886;2023-02-26T01:10:33;95053.28;;;1.50;50.77
27425;BME280;15244;49.088;11.886;2023-02-26T01:15:35;95045.22;;;1.50;50.89
27425;BME280;15244;49.088;11.886;2023-02-26T01:20:42;95041.31;;;1.48;50.90
27425;BME280;15244;49.088;11.886;2023-02-26T01:25:49;95035.94;;;1.48;50.60
27425;BME280;15244;49.088;11.886;2023-02-26T01:30:53;95039.09;;;1.38;50.27
27425;BME280;15244;49.088;11.886;2023-02-26T01:36:06;95045.94;;;1.35;51.05
27425;BME280;15244;49.088;11.886;2023-02-26T01:46:51;95040.69;;;1.26;50.52
27425;BME280;15244;49.088;11.886;2023-02-26T01:51:59;95045.44;;;1.17;50.87
27425;BME280;15244;49.088;11.886;2023-02-26T01:57:07;95058.63;;;1.10;50.97
27425;BME280;15244;49.088;11.886;2023-02-26T02:02:11;95061.00;;;1.12;50.64
27425;BME280;15244;49.088;11.886;2023-02-26T02:07:14;95063.22;;;1.10;50.80
27425;BME280;15244;49.088;11.886;2023-02-26T02:12:35;95064.47;;;1.00;50.84
27425;BME280;15244;49.088;11.886;2023-02-26T02:17:50;95066.25;;;0.96;50.90
27425;BME280;15244;49.088;11.886;2023-02-26T02:23:38;95064.94;;;0.90;50.64
27425;BME280;15244;49.088;11.886;2023-02-26T02:29:24;95074.22;;;0.92;51.04
27425;BME280;15244;49.088;11.886;2023-02-26T02:34:33;95087.19;;;0.90;51.09
27425;BME280;15244;49.088;11.886;2023-02-26T02:39:50;95086.41;;;0.90;51.21
27425;BME280;15244;49.088;11.886;2023-02-26T02:44:57;95088.31;;;0.89;51.21
27425;BME280;15244;49.088;11.886;2023-02-26T02:50:08;95094.22;;;0.82;50.91
27425;BME280;15244;49.088;11.886;2023-02-26T02:55:20;95087.53;;;0.76;50.93
27425;BME280;15244;49.088;11.886;2023-02-26T03:00:25;95090.53;;;0.75;51.01
27425;BME280;15244;49.088;11.886;2023-02-26T03:05:28;95099.94;;;0.69;51.02
27425;BME280;15244;49.088;11.886;2023-02-26T03:10:30;95102.25;;;0.58;51.24
27425;BME280;15244;49.088;11.886;2023-02-26T03:15:36;95116.69;;;0.41;50.87
27425;BME280;15244;49.088;11.886;2023-02-26T03:20:51;95116.44;;;0.34;51.27
27425;BME280;15244;49.088;11.886;2023-02-26T03:26:10;95127.34;;;0.16;51.37
27425;BME280;15244;49.088;11.886;2023-02-26T03:31:28;95127.34;;;0.16;50.79
27425;BME280;15244;49.088;11.886;2023-02-26T03:36:47;95133.13;;;0.06;51.37
27425;BME280;15244;49.088;11.886;2023-02-26T03:42:03;95138.47;;;0.06;51.12
27425;BME280;15244;49.088;11.886;2023-02-26T03:47:14;95140.00;;;-0.05;51.73
27425;BME280;15244;49.088;11.886;2023-02-26T03:52:21;95148.28;;;0.02;51.63
27425;BME280;15244;49.088;11.886;2023-02-26T03:57:48;95149.88;;;0.03;51.47
27425;BME280;15244;49.088;11.886;2023-02-26T04:08:19;95150.38;;;-0.04;51.72
27425;BME280;15244;49.088;11.886;2023-02-26T04:13:22;95155.44;;;-0.02;51.81
27425;BME280;15244;49.088;11.886;2023-02-26T04:18:26;95169.19;;;0.09;52.34
27425;BME280;15244;49.088;11.886;2023-02-26T04:23:29;95172.09;;;0.04;52.18
27425;BME280;15244;49.088;11.886;2023-02-26T04:28:32;95169.53;;;0.07;51.61
27425;BME280;15244;49.088;11.886;2023-02-26T04:33:35;95168.44;;;0.08;51.89
27425;BME280;15244;49.088;11.886;2023-02-26T04:38:37;95176.56;;;0.12;51.64
27425;BME280;15244;49.088;11.886;2023-02-26T04:43:38;95185.50;;;0.04;51.54
27425;BME280;15244;49.088;11.886;2023-02-26T04:49:06;95183.38;;;0.09;52.17
27425;BME280;15244;49.088;11.886;2023-02-26T04:54:09;95184.50;;;0.08;52.15
27425;BME280;15244;49.088;11.886;2023-02-26T04:59:11;95196.59;;;-0.07;51.90
27425;BME280;15244;49.088;11.886;2023-02-26T05:04:13;95194.44;;;-0.13;51.80
27425;BME280;15244;49.088;11.886;2023-02-26T05:09:18;95209.53;;;-0.09;52.10
27425;BME280;15244;49.088;11.886;2023-02-26T05:14:20;95216.59;;;-0.04;51.90
27425;BME280;15244;49.088;11.886;2023-02-26T05:19:22;95217.66;;;0.04;52.03
27425;BME280;15244;49.088;11.886;2023-02-26T05:24:24;95218.31;;;0.01;52.04
27425;BME280;15244;49.088;11.886;2023-02-26T05:29:26;95227.03;;;0.10;51.61
27425;BME280;15244;49.088;11.886;2023-02-26T05:34:27;95232.03;;;-0.01;52.15
27425;BME280;15244;49.088;11.886;2023-02-26T05:39:29;95235.03;;;-0.03;51.69
27425;BME280;15244;49.088;11.886;2023-02-26T05:44:30;95240.25;;;-0.06;51.75
27425;BME280;15244;49.088;11.886;2023-02-26T05:49:32;95243.41;;;-0.04;52.12
27425;BME280;15244;49.088;11.886;2023-02-26T05:54:34;95250.47;;;0.01;51.98
27425;BME280;15244;49.088;11.886;2023-02-26T05:59:35;95252.63;;;-0.14;51.76
27425;BME280;15244;49.088;11.886;2023-02-26T06:04:38;95270.19;;;-0.25;52.37
27425;BME280;15244;49.088;11.886;2023-02-26T06:09:40;95266.28;;;-0.28;52.41
27425;BME280;15244;49.088;11.886;2023-02-26T06:14:42;95276.56;;;-0.38;53.01
27425;BME280;15244;49.088;11.886;2023-02-26T06:19:43;95286.56;;;-0.48;52.84
27425;BME280;15244;49.088;11.886;2023-02-26T06:24:45;95290.88;;;-0.34;53.12
27425;BME280;15244;49.088;11.886;2023-02-26T06:29:47;95294.81;;;-0.32;53.11
27425;BME280;15244;49.088;11.886;2023-02-26T06:34:48;95301.59;;;-0.34;52.74
27425;BME280;15244;49.088;11.886;2023-02-26T06:39:50;95313.78;;;-0.16;52.52
27425;BME280;15244;49.088;11.886;2023-02-26T06:44:52;95315.19;;;-0.10;52.65
27425;BME280;15244;49.088;11.886;2023-02-26T06:49:53;95328.03;;;-0.03;53.07
27425;BME280;15244;49.088;11.886;2023-02-26T06:54:55;95335.50;;;-0.09;53.16
27425;BME280;15244;49.088;11.886;2023-02-26T06:59:56;95346.34;;;-0.05;52.87
27425;BME280;15244;49.088;11.886;2023-02-26T07:04:58;95351.06;;;-0.02;52.74
27425;BME280;15244;49.088;11.886;2023-02-26T07:09:59;95354.34;;;0.04;52.62
27425;BME280;15244;49.088;11.886;2023-02-26T07:15:01;95371.16;;;0.13;52.73
27425;BME280;15244;49.088;11.886;2023-02-26T07:20:03;95371.53;;;0.03;52.55
27425;BME280;15244;49.088;11.886;2023-02-26T07:25:11;95375.34;;;0.22;53.00
27425;BME280;15244;49.088;11.886;2023-02-26T07:30:13;95385.94;;;0.19;52.86
27425;BME280;15244;49.088;11.886;2023-02-26T07:35:15;95393.03;;;0.15;53.37
27425;BME280;15244;49.088;11.886;2023-02-26T07:40:17;95404.31;;;0.08;53.10
27425;BME280;15244;49.088;11.886;2023-02-26T07:45:18;95413.03;;;-0.04;53.78
27425;BME280;15244;49.088;11.886;2023-02-26T07:50:22;95413.44;;;0.07;53.43
27425;BME280;15244;49.088;11.886;2023-02-26T07:55:25;95421.47;;;0.07;53.85
27425;BME280;15244;49.088;11.886;2023-02-26T08:00:28;95424.81;;;0.04;53.71
27425;BME280;15244;49.088;11.886;2023-02-26T08:05:29;95437.94;;;0.27;54.06
27425;BME280;15244;49.088;11.886;2023-02-26T08:10:31;95440.72;;;0.39;54.24
27425;BME280;15244;49.088;11.886;2023-02-26T08:15:33;95450.50;;;0.64;54.11
27425;BME280;15244;49.088;11.886;2023-02-26T08:20:34;95451.47;;;0.81;53.92
27425;BME280;15244;49.088;11.886;2023-02-26T08:25:36;95460.13;;;0.86;54.24
27425;BME280;15244;49.088;11.886;2023-02-26T08:30:37;95461.63;;;0.96;54.02
27425;BME280;15244;49.088;11.886;2023-02-26T08:35:39;95462.00;;;0.86;53.99
27425;BME280;15244;49.088;11.886;2023-02-26T08:40:41;95467.53;;;0.90;53.88
27425;BME280;15244;49.088;11.886;2023-02-26T08:45:43;95471.44;;;0.92;53.78
27425;BME280;15244;49.088;11.886;2023-02-26T08:50:45;95478.38;;;1.14;53.69
27425;BME280;15244;49.088;11.886;2023-02-26T08:55:48;95485.19;;;1.33;54.05
27425;BME280;15244;49.088;11.886;2023-02-26T09:00:50;95509.41;;;1.45;53.59
27425;BME280;15244;49.088;11.886;2023-02-26T09:05:51;95509.25;;;1.74;53.68
27425;BME280;15244;49.088;11.886;2023-02-26T09:10:53;95509.53;;;1.94;53.35
27425;BME280;15244;49.088;11.886;2023-02-26T09:15:55;95517.53;;;2.15;53.42
27425;BME280;15244;49.088;11.886;2023-02-26T09:20:57;95533.16;;;2.34;52.85
27425;BME280;15244;49.088;11.886;2023-02-26T09:25:58;95543.47;;;2.56;52.44
27425;BME280;15244;49.088;11.886;2023-02-26T09:31:00;95545.59;;;2.75;52.19
27425;BME280;15244;49.088;11.886;2023-02-26T09:36:02;95546.59;;;2.95;52.30
27425;BME280;15244;49.088;11.886;2023-02-26T09:41:07;95547.03;;;3.10;52.17
27425;BME280;15244;49.088;11.886;2023-02-26T09:51:33;95545.47;;;3.49;51.80
27425;BME280;15244;49.088;11.886;2023-02-26T09:56:35;95561.38;;;3.66;50.79
27425;BME280;15244;49.088;11.886;2023-02-26T10:01:44;95568.06;;;3.85;51.11
27425;BME280;15244;49.088;11.886;2023-02-26T10:06:54;95578.81;;;3.57;50.15
27425;BME280;15244;49.088;11.886;2023-02-26T10:12:13;95580.47;;;3.61;49.96
27425;BME280;15244;49.088;11.886;2023-02-26T10:22:46;95603.91;;;3.45;49.68
27425;BME280;15244;49.088;11.886;2023-02-26T10:27:57;95602.88;;;3.50;49.50
27425;BME280;15244;49.088;11.886;2023-02-26T10:33:14;95620.59;;;3.63;49.53
27425;BME280;15244;49.088;11.886;2023-02-26T10:38:23;95615.53;;;3.61;49.38
27425;BME280;15244;49.088;11.886;2023-02-26T10:43:36;95622.06;;;3.60;49.51
27425;BME280;15244;49.088;11.886;2023-02-26T10:54:13;95626.44;;;3.65;49.72
27425;BME280;15244;49.088;11.886;2023-02-26T10:59:16;95618.53;;;3.72;49.49
27425;BME280;15244;49.088;11.886;2023-02-26T11:04:21;95615.91;;;3.88;49.76
27425;BME280;15244;49.088;11.886;2023-02-26T11:09:26;95612.22;;;4.08;49.99
27425;BME280;15244;49.088;11.886;2023-02-26T11:14:31;95617.75;;;4.28;50.09
27425;BME280;15244;49.088;11.886;2023-02-26T11:19:50;95617.00;;;4.43;49.22
27425;BME280;15244;49.088;11.886;2023-02-26T11:24:52;95618.75;;;4.36;48.35
27425;BME280;15244;49.088;11.886;2023-02-26T11:29:59;95616.13;;;4.39;48.43
27425;BME280;15244;49.088;11.886;2023-02-26T11:35:07;95608.34;;;4.38;47.58
27425;BME280;15244;49.088;11.886;2023-02-26T11:40:21;95618.31;;;4.49;48.25
27425;BME280;15244;49.088;11.886;2023-02-26T11:45:23;95608.91;;;4.59;47.80
27425;BME280;15244;49.088;11.886;2023-02-26T11:50:25;95599.88;;;4.67;48.09
27425;BME280;15244;49.088;11.886;2023-02-26T11:55:32;95602.22;;;4.69;48.06
27425;BME280;15244;49.088;11.886;2023-02-26T12:00:35;95596.47;;;4.70;47.56
27425;BME280;15244;49.088;11.886;2023-02-26T12:05:38;95593.94;;;4.77;46.98
27425;BME280;15244;49.088;11.886;2023-02-26T12:10:49;95589.25;;;4.74;46.94
27425;BME280;15244;49.088;11.886;2023-02-26T12:16:08;95581.47;;;4.73;46.41
27425;BME280;15244;49.088;11.886;2023-02-26T12:37:08;95576.31;;;4.99;45.77
27425;BME280;15244;49.088;11.886;2023-02-26T12:42:25;95567.75;;;5.13;45.83
27425;BME280;15244;49.088;11.886;2023-02-26T12:47:59;95579.75;;;5.32;46.33
27425;BME280;15244;49.088;11.886;2023-02-26T13:03:42;95600.19;;;5.49;44.86
27425;BME280;15244;49.088;11.886;2023-02-26T13:09:02;95609.63;;;5.39;44.41
27425;BME280;15244;49.088;11.886;2023-02-26T13:14:20;95611.50;;;5.35;43.83
27425;BME280;15244;49.088;11.886;2023-02-26T13:19:46;95624.63;;;5.36;44.23
27425;BME280;15244;49.088;11.886;2023-02-26T13:25:05;95612.88;;;5.45;44.58
27425;BME280;15244;49.088;11.886;2023-02-26T13:30:28;95611.09;;;5.52;44.22
27425;BME280;15244;49.088;11.886;2023-02-26T13:35:35;95624.81;;;5.43;44.01
27425;BME280;15244;49.088;11.886;2023-02-26T13:40:59;95627.47;;;4.92;44.83
27425;BME280;15244;49.088;11.886;2023-02-26T13:51:36;95624.28;;;3.99;45.63
27425;BME280;15244;49.088;11.886;2023-02-26T14:07:53;95626.16;;;4.70;45.70
27425;BME280;15244;49.088;11.886;2023-02-26T14:13:18;95636.19;;;4.86;45.21
27425;BME280;15244;49.088;11.886;2023-02-26T14:18:29;95644.66;;;5.00;44.68
27425;BME280;15244;49.088;11.886;2023-02-26T14:23:35;95633.66;;;5.25;44.93
27425;BME280;15244;49.088;11.886;2023-02-26T14:28:44;95640.50;;;5.38;44.24
27425;BME280;15244;49.088;11.886;2023-02-26T14:33:59;95670.72;;;4.76;45.08
27425;BME280;15244;49.088;11.886;2023-02-26T14:39:04;95672.00;;;4.67;45.92
27425;BME280;15244;49.088;11.886;2023-02-26T14:44:16;95678.97;;;4.40;46.60
27425;BME280;15244;49.088;11.886;2023-02-26T14:54:53;95677.31;;;4.07;46.78
27425;BME280;15244;49.088;11.886;2023-02-26T15:00:26;95684.06;;;4.13;46.89
27425;BME280;15244;49.088;11.886;2023-02-26T15:16:39;95690.31;;;5.05;47.42
27425;BME280;15244;49.088;11.886;2023-02-26T15:27:02;95728.44;;;5.48;46.56
27425;BME280;15244;49.088;11.886;2023-02-26T15:32:28;95744.28;;;5.33;46.81
27425;BME280;15244;49.088;11.886;2023-02-26T15:37:30;95754.66;;;5.15;47.00
27425;BME280;15244;49.088;11.886;2023-02-26T15:42:36;95765.72;;;5.10;46.98
27425;BME280;15244;49.088;11.886;2023-02-26T15:47:39;95777.94;;;5.04;47.36
27425;BME280;15244;49.088;11.886;2023-02-26T15:52:41;95778.19;;;4.99;47.51
27425;BME280;15244;49.088;11.886;2023-02-26T15:57:43;95787.78;;;4.96;46.72
27425;BME280;15244;49.088;11.886;2023-02-26T16:02:48;95783.84;;;4.94;46.90
27425;BME280;15244;49.088;11.886;2023-02-26T16:07:49;95781.16;;;4.94;46.66
27425;BME280;15244;49.088;11.886;2023-02-26T16:12:51;95788.84;;;4.80;46.84
27425;BME280;15244;49.088;11.886;2023-02-26T16:17:55;95792.75;;;4.66;46.57
27425;BME280;15244;49.088;11.886;2023-02-26T16:23:01;95794.84;;;4.32;45.74
27425;BME280;15244;49.088;11.886;2023-02-26T16:28:06;95800.41;;;3.87;46.05
27425;BME280;15244;49.088;11.886;2023-02-26T16:33:15;95803.34;;;3.82;46.14
27425;BME280;15244;49.088;11.886;2023-02-26T16:38:25;95815.03;;;3.61;46.56
27425;BME280;15244;49.088;11.886;2023-02-26T16:43:48;95815.53;;;3.18;46.89
27425;BME280;15244;49.088;11.886;2023-02-26T16:49:04;95831.16;;;2.91;47.74
27425;BME280;15244;49.088;11.886;2023-02-26T16:54:21;95849.84;;;3.09;47.50
27425;BME280;15244;49.088;11.886;2023-02-26T16:59:27;95854.94;;;3.22;47.72
27425;BME280;15244;49.088;11.886;2023-02-26T17:04:33;95846.91;;;3.35;47.74
27425;BME280;15244;49.088;11.886;2023-02-26T17:09:38;95864.19;;;3.46;47.64
27425;BME280;15244;49.088;11.886;2023-02-26T17:14:42;95880.84;;;3.48;47.40
27425;BME280;15244;49.088;11.886;2023-02-26T17:19:44;95881.50;;;3.45;47.24
27425;BME280;15244;49.088;11.886;2023-02-26T17:24:45;95889.09;;;3.31;47.43
27425;BME280;15244;49.088;11.886;2023-02-26T17:29:49;95899.19;;;3.00;47.26
27425;BME280;15244;49.088;11.886;2023-02-26T17:34:51;95905.97;;;2.65;47.56
27425;BME280;15244;49.088;11.886;2023-02-26T17:39:53;95899.78;;;2.43;47.78
27425;BME280;15244;49.088;11.886;2023-02-26T17:44:55;95910.44;;;2.01;48.41
27425;BME280;15244;49.088;11.886;2023-02-26T17:49:57;95922.00;;;2.02;48.34
27425;BME280;15244;49.088;11.886;2023-02-26T17:55:00;95922.66;;;1.90;48.63
27425;BME280;15244;49.088;11.886;2023-02-26T18:00:02;95919.25;;;1.81;48.88
27425;BME280;15244;49.088;11.886;2023-02-26T18:05:15;95928.25;;;1.76;49.12
27425;BME280;15244;49.088;11.886;2023-02-26T18:10:23;95929.03;;;1.77;48.97
27425;BME280;15244;49.088;11.886;2023-02-26T18:15:25;95942.13;;;1.87;48.94
27425;BME280;15244;49.088;11.886;2023-02-26T18:20:27;95942.34;;;1.64;50.13
27425;BME280;15244;49.088;11.886;2023-02-26T18:25:30;95942.84;;;1.66;49.90
27425;BME280;15244;49.088;11.886;2023-02-26T18:30:33;95958.03;;;1.62;50.00
27425;BME280;15244;49.088;11.886;2023-02-26T18:35:37;95950.97;;;1.40;50.29
27425;BME280;15244;49.088;11.886;2023-02-26T18:40:47;95944.81;;;1.40;50.55
27425;BME280;15244;49.088;11.886;2023-02-26T18:45:49;95948.75;;;1.34;50.54
27425;BME280;15244;49.088;11.886;2023-02-26T18:50:52;95947.16;;;1.24;50.91
27425;BME280;15244;49.088;11.886;2023-02-26T18:55:55;95957.47;;;0.96;51.86
27425;BME280;15244;49.088;11.886;2023-02-26T19:00:58;95959.53;;;1.07;51.46
27425;BME280;15244;49.088;11.886;2023-02-26T19:06:02;95963.47;;;1.01;51.94
27425;BME280;15244;49.088;11.886;2023-02-26T19:11:04;95972.16;;;1.07;51.13
27425;BME280;15244;49.088;11.886;2023-02-26T19:16:05;95978.31;;;0.99;51.55
27425;BME280;15244;49.088;11.886;2023-02-26T19:21:08;95988.25;;;0.98;52.09
27425;BME280;15244;49.088;11.886;2023-02-26T19:26:09;96001.53;;;1.03;51.42
27425;BME280;15244;49.088;11.886;2023-02-26T19:31:11;96005.63;;;1.01;51.59
27425;BME280;15244;49.088;11.886;2023-02-26T19:36:13;96008.97;;;1.06;51.67
27425;BME280;15244;49.088;11.886;2023-02-26T19:41:16;96026.31;;;1.00;51.56
27425;BME280;15244;49.088;11.886;2023-02-26T19:46:21;96023.63;;;0.92;51.73
27425;BME280;15244;49.088;11.886;2023-02-26T19:51:23;96026.16;;;0.97;51.03
27425;BME280;15244;49.088;11.886;2023-02-26T19:56:25;96015.88;;;0.81;51.69
27425;BME280;15244;49.088;11.886;2023-02-26T20:01:27;96030.41;;;0.89;50.93
27425;BME280;15244;49.088;11.886;2023-02-26T20:06:30;96036.13;;;0.96;51.44
27425;BME280;15244;49.088;11.886;2023-02-26T20:11:32;96043.06;;;0.97;50.68
27425;BME280;15244;49.088;11.886;2023-02-26T20:16:34;96046.25;;;1.17;50.92
27425;BME280;15244;49.088;11.886;2023-02-26T20:21:37;96045.31;;;1.30;50.69
27425;BME280;15244;49.088;11.886;2023-02-26T20:26:38;96064.75;;;1.44;50.08
27425;BME280;15244;49.088;11.886;2023-02-26T20:31:40;96066.00;;;1.56;50.20
27425;BME280;15244;49.088;11.886;2023-02-26T20:36:42;96073.91;;;1.61;50.13
27425;BME280;15244;49.088;11.886;2023-02-26T20:41:48;96064.09;;;1.56;49.93
27425;BME280;15244;49.088;11.886;2023-02-26T20:46:51;96072.66;;;1.49;49.64
27425;BME280;15244;49.088;11.886;2023-02-26T20:51:53;96070.59;;;1.38;49.83
27425;BME280;15244;49.088;11.886;2023-02-26T20:56:55;96069.16;;;1.32;50.07
27425;BME280;15244;49.088;11.886;2023-02-26T21:01:56;96065.84;;;1.17;49.52
27425;BME280;15244;49.088;11.886;2023-02-26T21:06:58;96072.16;;;1.13;49.31
27425;BME280;15244;49.088;11.886;2023-02-26T21:12:14;96073.41;;;1.15;49.60
27425;BME280;15244;49.088;11.886;2023-02-26T21:17:15;96088.59;;;1.28;49.61
27425;BME280;15244;49.088;11.886;2023-02-26T21:22:18;96097.00;;;1.44;49.53
27425;BME280;15244;49.088;11.886;2023-02-26T21:27:19;96096.50;;;1.51;48.86
27425;BME280;15244;49.088;11.886;2023-02-26T21:32:22;96093.50;;;1.61;48.66
27425;BME280;15244;49.088;11.886;2023-02-26T21:37:24;96093.19;;;1.71;48.43
27425;BME280;15244;49.088;11.886;2023-02-26T21:42:26;96092.72;;;1.78;48.48
27425;BME280;15244;49.088;11.886;2023-02-26T21:47:28;96099.84;;;1.83;48.01
27425;BME280;15244;49.088;11.886;2023-02-26T21:52:29;96100.00;;;1.78;47.71
27425;BME280;15244;49.088;11.886;2023-02-26T21:57:31;96100.78;;;1.78;47.86
27425;BME280;15244;49.088;11.886;2023-02-26T22:02:32;96105.81;;;1.80;47.66
27425;BME280;15244;49.088;11.886;2023-02-26T22:07:34;96117.22;;;1.85;47.33
27425;BME280;15244;49.088;11.886;2023-02-26T22:12:36;96131.59;;;1.89;47.39
27425;BME280;15244;49.088;11.886;2023-02-26T22:17:37;96129.56;;;1.95;47.60
27425;BME280;15244;49.088;11.886;2023-02-26T22:22:39;96127.50;;;1.92;47.31
27425;BME280;15244;49.088;11.886;2023-02-26T22:27:41;96123.38;;;1.77;47.19
27425;BME280;15244;49.088;11.886;2023-02-26T22:32:43;96131.94;;;1.70;47.10
27425;BME280;15244;49.088;11.886;2023-02-26T22:37:44;96130.97;;;1.66;47.45
27425;BME280;15244;49.088;11.886;2023-02-26T22:42:46;96139.38;;;1.65;46.97
27425;BME280;15244;49.088;11.886;2023-02-26T22:47:48;96145.69;;;1.69;47.24
27425;BME280;15244;49.088;11.886;2023-02-26T22:52:50;96152.00;;;1.73;47.41
27425;BME280;15244;49.088;11.886;2023-02-26T22:57:52;96155.34;;;1.79;47.66
27425;BME280;15244;49.088;11.886;2023-02-26T23:02:54;96146.00;;;1.85;47.71
27425;BME280;15244;49.088;11.886;2023-02-26T23:07:56;96135.25;;;1.85;47.46
27425;BME280;15244;49.088;11.886;2023-02-26T23:12:57;96135.88;;;1.73;47.74
27425;BME280;15244;49.088;11.886;2023-02-26T23:18:00;96139.19;;;1.61;47.27
27425;BME280;15244;49.088;11.886;2023-02-26T23:23:02;96137.78;;;1.55;47.71
27425;BME280;15244;49.088;11.886;2023-02-26T23:28:03;96141.56;;;1.54;47.44
27425;BME280;15244;49.088;11.886;2023-02-26T23:33:05;96148.03;;;1.62;47.95
27425;BME280;15244;49.088;11.886;2023-02-26T23:38:07;96145.53;;;1.65;47.60
27425;BME280;15244;49.088;11.886;2023-02-26T23:43:09;96147.28;;;1.70;47.99
27425;BME280;15244;49.088;11.886;2023-02-26T23:48:11;96156.75;;;1.76;47.90
27425;BME280;15244;49.088;11.886;2023-02-26T23:53:12;96164.66;;;1.81;48.16
27425;BME280;15244;49.088;11.886;2023-02-26T23:58:14;96162.13;;;1.85;47.48
